createdAt,value
2023-05-11T00:01:42.845Z,3.00
2023-05-11T00:04:11.119Z,2.90
2023-05-11T00:06:39.194Z,3.20
2023-05-11T00:09:07.844Z,2.80
2023-05-11T00:11:37.262Z,2.97
2023-05-11T00:14:05.723Z,2.73
2023-05-11T00:16:33.800Z,3.20
2023-05-11T00:19:01.982Z,3.10
2023-05-11T00:21:30.154Z,2.60
2023-05-11T00:23:58.152Z,2.90
2023-05-11T00:26:26.839Z,2.80
2023-05-11T00:28:56.394Z,3.17
2023-05-11T00:31:24.694Z,2.90
2023-05-11T00:33:54.643Z,2.97
2023-05-11T00:36:22.837Z,3.20
2023-05-11T00:38:50.897Z,3.03
2023-05-11T00:41:18.979Z,2.93
2023-05-11T00:43:47.123Z,3.20
2023-05-11T00:46:16.686Z,3.10
2023-05-11T00:48:45.539Z,2.80
2023-05-11T00:51:14.755Z,3.40
2023-05-11T00:53:42.866Z,3.17
2023-05-11T00:56:10.836Z,3.10
2023-05-11T00:58:39.097Z,2.90
2023-05-11T01:01:07.421Z,3.37
2023-05-11T01:03:36.983Z,3.20
2023-05-11T01:06:11.405Z,3.27
2023-05-11T01:08:43.996Z,3.13
2023-05-11T01:11:19.141Z,3.57
2023-05-11T01:13:52.887Z,3.17
2023-05-11T01:16:24.571Z,3.10
2023-05-11T01:19:02.103Z,3.23
2023-05-11T01:21:33.907Z,3.37
2023-05-11T01:24:21.331Z,3.57
2023-05-11T01:27:20.878Z,3.20
2023-05-11T01:30:06.545Z,3.37
2023-05-11T01:32:41.996Z,2.87
2023-05-11T01:35:15.652Z,3.07
2023-05-11T01:37:49.025Z,2.93
2023-05-11T01:40:19.918Z,3.10
2023-05-11T01:42:51.139Z,3.23
2023-05-11T01:45:21.278Z,3.10
2023-05-11T01:47:53.313Z,3.17
2023-05-11T01:50:23.809Z,3.00
2023-05-11T01:52:53.111Z,3.13
2023-05-11T01:55:23.570Z,3.07
2023-05-11T01:57:55.524Z,2.90
2023-05-11T02:00:24.982Z,3.33
2023-05-11T02:02:57.650Z,2.87
2023-05-11T02:05:26.389Z,3.70
2023-05-11T02:07:56.963Z,3.40
2023-05-11T02:10:27.676Z,3.10
2023-05-11T02:12:56.838Z,2.97
2023-05-11T02:15:26.082Z,2.97
2023-05-11T02:17:56.820Z,3.23
2023-05-11T02:20:26.354Z,3.20
2023-05-11T02:22:55.654Z,3.20
2023-05-11T02:25:24.712Z,3.40
2023-05-11T02:27:52.859Z,3.47
2023-05-11T02:30:21.169Z,3.10
2023-05-11T02:32:53.038Z,3.07
2023-05-11T02:35:26.579Z,3.60
2023-05-11T02:37:57.657Z,2.97
2023-05-11T02:40:30.834Z,2.90
2023-05-11T02:43:03.529Z,3.40
2023-05-11T02:45:33.555Z,3.30
2023-05-11T02:48:07.195Z,3.27
2023-05-11T02:50:40.418Z,3.30
2023-05-11T02:53:15.894Z,3.10
2023-05-11T02:55:44.232Z,3.03
2023-05-11T02:58:12.709Z,2.93
2023-05-11T03:00:41.025Z,3.50
2023-05-11T03:03:09.566Z,3.40
2023-05-11T03:05:39.200Z,3.37
2023-05-11T03:08:07.332Z,3.40
2023-05-11T03:10:35.439Z,3.23
2023-05-11T03:13:04.666Z,3.37
2023-05-11T03:15:33.374Z,3.23
2023-05-11T03:18:02.515Z,3.57
2023-05-11T03:20:31.708Z,3.50
2023-05-11T03:23:02.796Z,3.03
2023-05-11T03:25:31.344Z,3.50
2023-05-11T03:28:01.689Z,2.80
2023-05-11T03:30:30.896Z,3.10
2023-05-11T03:32:59.038Z,3.50
2023-05-11T03:35:29.403Z,3.60
2023-05-11T03:38:00.742Z,3.67
2023-05-11T03:40:30.217Z,3.40
2023-05-11T03:43:00.254Z,3.30
2023-05-11T03:45:30.230Z,3.53
2023-05-11T03:47:59.207Z,3.80
2023-05-11T03:50:28.429Z,3.10
2023-05-11T03:52:56.962Z,3.40
2023-05-11T03:55:26.863Z,3.57
2023-05-11T03:57:55.551Z,3.50
2023-05-11T04:00:23.747Z,3.50
2023-05-11T04:02:53.428Z,3.73
2023-05-11T04:05:21.487Z,3.83
2023-05-11T04:07:51.051Z,3.97
2023-05-11T04:10:19.262Z,3.80
2023-05-11T04:12:48.742Z,3.83
2023-05-11T04:15:16.929Z,3.93
2023-05-11T04:17:45.183Z,3.63
2023-05-11T04:20:13.988Z,3.27
2023-05-11T04:22:42.156Z,3.67
2023-05-11T04:25:10.676Z,3.60
2023-05-11T04:27:38.841Z,3.80
2023-05-11T04:30:10.592Z,3.80
2023-05-11T04:32:38.813Z,3.83
2023-05-11T04:35:07.215Z,3.20
2023-05-11T04:37:35.293Z,3.87
2023-05-11T04:40:04.291Z,3.70
2023-05-11T04:42:32.336Z,3.47
2023-05-11T04:45:00.353Z,3.87
2023-05-11T04:47:29.833Z,3.40
2023-05-11T04:49:57.904Z,3.53
2023-05-11T04:52:26.011Z,3.60
2023-05-11T04:54:54.121Z,3.47
2023-05-11T04:57:22.169Z,3.60
2023-05-11T04:59:50.440Z,3.70
2023-05-11T05:02:18.502Z,3.47
2023-05-11T05:04:47.992Z,3.53
2023-05-11T05:07:16.283Z,3.97
2023-05-11T05:09:45.418Z,3.80
2023-05-11T05:12:13.955Z,4.80
2023-05-11T05:14:42.112Z,4.00
2023-05-11T05:17:10.506Z,3.97
2023-05-11T05:19:38.552Z,3.63
2023-05-11T05:22:08.190Z,4.07
2023-05-11T05:24:36.519Z,3.80
2023-05-11T05:27:04.674Z,3.87
2023-05-11T05:29:32.699Z,3.63
2023-05-11T05:32:00.732Z,3.27
2023-05-11T05:34:28.805Z,3.30
2023-05-11T05:36:56.955Z,3.70
2023-05-11T05:39:26.720Z,3.63
2023-05-11T05:41:54.907Z,3.20
2023-05-11T05:44:23.144Z,3.77
2023-05-11T05:46:51.210Z,3.77
2023-05-11T05:49:19.230Z,3.70
2023-05-11T05:51:47.588Z,4.10
2023-05-11T05:54:15.682Z,3.40
2023-05-11T05:56:45.203Z,3.83
2023-05-11T05:59:14.387Z,3.10
2023-05-11T06:01:46.438Z,3.57
2023-05-11T06:04:14.821Z,3.37
2023-05-11T06:06:43.181Z,3.17
2023-05-11T06:09:11.450Z,3.30
2023-05-11T06:11:39.526Z,2.90
2023-05-11T06:14:08.936Z,3.10
2023-05-11T06:16:37.087Z,3.20
2023-05-11T06:19:05.746Z,3.13
2023-05-11T06:21:33.892Z,2.90
2023-05-11T06:24:01.828Z,2.97
2023-05-11T06:26:29.831Z,3.40
2023-05-11T06:28:58.054Z,3.30
2023-05-11T06:31:27.603Z,2.97
2023-05-11T06:33:55.605Z,2.53
2023-05-11T06:36:23.703Z,2.60
2023-05-11T06:38:51.918Z,2.90
2023-05-11T06:41:19.959Z,2.77
2023-05-11T06:43:48.064Z,2.90
2023-05-11T06:46:18.075Z,2.40
2023-05-11T06:48:47.724Z,2.70
2023-05-11T06:51:15.877Z,3.23
2023-05-11T06:53:44.544Z,3.00
2023-05-11T06:56:12.603Z,2.73
2023-05-11T06:58:40.902Z,2.67
2023-05-11T07:01:09.074Z,2.83
2023-05-11T07:03:37.477Z,2.70
2023-05-11T07:06:07.838Z,2.73
2023-05-11T07:08:35.910Z,2.53
2023-05-11T07:11:03.931Z,2.80
2023-05-11T07:13:32.122Z,2.30
2023-05-11T07:16:00.106Z,2.53
2023-05-11T07:18:28.418Z,2.90
2023-05-11T07:20:56.716Z,3.27
2023-05-11T07:23:26.267Z,2.60
2023-05-11T07:25:57.363Z,2.40
2023-05-11T07:28:25.731Z,2.20
2023-05-11T07:30:53.864Z,2.60
2023-05-11T07:33:21.853Z,2.47
2023-05-11T07:35:49.933Z,2.37
2023-05-11T07:38:18.426Z,2.60
2023-05-11T07:40:48.065Z,2.50
2023-05-11T07:43:16.032Z,2.37
2023-05-11T07:45:44.526Z,2.20
2023-05-11T07:48:12.608Z,2.63
2023-05-11T07:50:41.194Z,2.80
2023-05-11T07:53:09.506Z,2.63
2023-05-11T07:55:37.589Z,2.30
2023-05-11T07:58:07.033Z,2.50
2023-05-11T08:00:35.610Z,2.40
2023-05-11T08:03:03.572Z,2.63
2023-05-11T08:05:33.148Z,2.67
2023-05-11T08:08:01.881Z,2.30
2023-05-11T08:10:29.885Z,2.67
2023-05-11T08:12:58.491Z,2.53
2023-05-11T08:15:28.543Z,2.40
2023-05-11T08:17:56.863Z,2.47
2023-05-11T08:20:24.908Z,3.00
2023-05-11T08:22:53.006Z,2.33
2023-05-11T08:25:21.058Z,2.60
2023-05-11T08:27:49.158Z,2.27
2023-05-11T08:30:17.841Z,2.27
2023-05-11T08:32:58.040Z,2.33
2023-05-11T08:35:27.280Z,2.50
2023-05-11T08:37:55.419Z,2.30
2023-05-11T08:40:27.819Z,2.00
2023-05-11T08:42:57.968Z,2.10
2023-05-11T08:45:27.979Z,2.07
2023-05-11T08:47:57.600Z,2.00
2023-05-11T08:50:25.999Z,2.20
2023-05-11T08:52:54.181Z,2.00
2023-05-11T08:55:23.437Z,2.20
2023-05-11T08:57:54.424Z,2.00
2023-05-11T09:00:24.115Z,2.00
2023-05-11T09:02:53.454Z,2.40
2023-05-11T09:05:24.018Z,2.60
2023-05-11T09:07:55.610Z,2.20
2023-05-11T09:10:23.801Z,1.93
2023-05-11T09:12:51.833Z,2.00
2023-05-11T09:15:20.790Z,2.40
2023-05-11T09:17:49.683Z,2.13
2023-05-11T09:20:25.488Z,2.50
2023-05-11T09:22:55.392Z,2.23
2023-05-11T09:25:24.567Z,2.40
2023-05-11T09:27:53.118Z,1.90
2023-05-11T09:30:23.894Z,2.07
2023-05-11T09:32:53.970Z,2.17
2023-05-11T09:35:24.989Z,2.10
2023-05-11T09:38:04.528Z,1.87
2023-05-11T09:40:34.492Z,2.00
2023-05-11T09:43:03.738Z,1.83
2023-05-11T09:45:39.572Z,1.77
2023-05-11T09:48:08.762Z,2.60
2023-05-11T09:50:37.473Z,2.30
2023-05-11T09:53:07.010Z,2.33
2023-05-11T09:55:35.026Z,2.30
2023-05-11T09:58:04.552Z,2.30
2023-05-11T10:00:33.238Z,2.33
2023-05-11T10:03:03.198Z,2.20
2023-05-11T10:05:32.501Z,2.00
2023-05-11T10:08:01.948Z,2.00
2023-05-11T10:10:32.516Z,2.17
2023-05-11T10:13:02.132Z,2.20
2023-05-11T10:15:31.976Z,2.13
2023-05-11T10:18:01.443Z,3.77
2023-05-11T10:20:29.767Z,2.17
2023-05-11T10:22:58.271Z,2.20
2023-05-11T10:25:27.564Z,2.10
2023-05-11T10:27:58.210Z,2.00
2023-05-11T10:30:26.426Z,2.23
2023-05-11T10:32:56.521Z,1.90
2023-05-11T10:35:24.763Z,2.10
2023-05-11T10:37:52.999Z,2.00
2023-05-11T10:40:21.311Z,2.07
2023-05-11T10:43:21.907Z,1.80
2023-05-11T10:45:57.384Z,2.10
2023-05-11T10:48:47.257Z,1.80
2023-05-11T10:51:44.139Z,2.13
2023-05-11T10:54:33.766Z,2.30
2023-05-11T10:57:27.350Z,1.98
2023-05-11T11:00:14.294Z,2.00
2023-05-11T11:02:45.404Z,1.98
2023-05-11T11:05:18.050Z,1.70
2023-05-11T11:07:58.857Z,2.03
2023-05-11T11:10:34.499Z,1.90
2023-05-11T11:13:08.130Z,1.88
2023-05-11T11:16:09.455Z,1.70
2023-05-11T11:18:39.105Z,1.90
2023-05-11T11:21:07.223Z,1.75
2023-05-11T11:23:49.003Z,1.55
2023-05-11T11:26:21.075Z,1.85
2023-05-11T11:29:16.822Z,1.60
2023-05-11T11:31:44.933Z,1.70
2023-05-11T11:34:39.242Z,2.13
2023-05-11T11:37:10.004Z,1.77
2023-05-11T11:39:51.170Z,1.80
2023-05-11T11:42:33.508Z,1.90
2023-05-11T11:45:32.866Z,1.80
2023-05-11T11:48:15.597Z,1.83
2023-05-11T11:50:47.877Z,2.00
2023-05-11T11:53:49.151Z,1.65
2023-05-11T11:56:40.165Z,2.10
2023-05-11T11:59:11.692Z,1.77
2023-05-11T12:01:40.761Z,1.92
2023-05-11T12:04:51.383Z,1.95
2023-05-11T12:07:33.600Z,1.63
2023-05-11T12:10:05.045Z,1.95
2023-05-11T12:12:33.711Z,1.98
2023-05-11T12:15:03.048Z,1.90
2023-05-11T12:17:32.667Z,2.17
2023-05-11T12:20:14.347Z,1.92
2023-05-11T12:22:44.547Z,1.85
2023-05-11T12:25:14.885Z,2.30
2023-05-11T12:27:51.131Z,1.83
2023-05-11T12:30:24.282Z,1.80
2023-05-11T12:35:25.338Z,2.00
2023-05-11T12:37:55.358Z,1.83
2023-05-11T12:40:23.671Z,1.60
2023-05-11T12:42:52.757Z,1.80
2023-05-11T12:45:23.456Z,1.83
2023-05-11T12:47:53.248Z,1.70
2023-05-11T12:50:22.226Z,1.90
2023-05-11T12:52:51.173Z,1.70
2023-05-11T12:55:30.089Z,1.98
2023-05-11T12:58:09.598Z,1.88
2023-05-11T13:00:38.243Z,1.73
2023-05-11T13:03:06.511Z,1.75
2023-05-11T13:05:34.784Z,2.15
2023-05-11T13:08:04.634Z,2.08
2023-05-11T13:10:34.152Z,1.95
2023-05-11T13:13:02.465Z,2.03
2023-05-11T13:15:31.096Z,1.83
2023-05-11T13:18:00.699Z,1.70
2023-05-11T13:20:30.130Z,1.58
2023-05-11T13:23:06.175Z,1.85
2023-05-11T13:25:36.753Z,1.80
2023-05-11T13:28:05.259Z,1.52
2023-05-11T13:30:35.153Z,2.00
2023-05-11T13:33:04.185Z,1.90
2023-05-11T13:35:32.541Z,1.90
2023-05-11T13:38:00.601Z,1.67
2023-05-11T13:40:28.755Z,1.80
2023-05-11T13:42:58.115Z,1.80
2023-05-11T13:45:26.251Z,1.83
2023-05-11T13:47:55.333Z,1.67
2023-05-11T13:50:23.990Z,1.95
2023-05-11T13:52:52.003Z,2.00
2023-05-11T13:55:21.112Z,1.63
2023-05-11T13:57:49.517Z,1.55
2023-05-11T14:00:20.763Z,1.77
2023-05-11T14:02:50.489Z,1.67
2023-05-11T14:05:19.409Z,1.90
2023-05-11T14:07:49.008Z,1.73
2023-05-11T14:10:17.812Z,1.75
2023-05-11T14:12:46.157Z,1.90
2023-05-11T14:15:14.362Z,1.98
2023-05-11T14:17:44.016Z,1.77
2023-05-11T14:20:13.234Z,1.60
2023-05-11T14:22:41.758Z,1.75
2023-05-11T14:25:10.335Z,1.85
2023-05-11T14:27:38.490Z,2.00
2023-05-11T14:30:07.965Z,1.90
2023-05-11T14:32:36.043Z,2.15
2023-05-11T14:35:06.032Z,1.85
2023-05-11T14:37:34.634Z,1.92
2023-05-11T14:40:02.817Z,1.85
2023-05-11T14:42:31.138Z,2.13
2023-05-11T14:44:59.395Z,1.75
2023-05-11T14:47:27.538Z,1.70
2023-05-11T14:49:55.931Z,2.00
2023-05-11T14:52:25.402Z,1.88
2023-05-11T14:54:53.501Z,2.08
2023-05-11T14:57:21.924Z,1.80
2023-05-11T14:59:59.074Z,1.85
2023-05-11T15:02:28.649Z,1.95
2023-05-11T15:04:56.750Z,1.70
2023-05-11T15:07:26.815Z,1.92
2023-05-11T15:09:55.061Z,1.80
2023-05-11T15:12:23.142Z,2.33
2023-05-11T15:14:51.921Z,1.70
2023-05-11T15:17:20.049Z,2.20
2023-05-11T15:19:48.170Z,1.90
2023-05-11T15:22:17.408Z,1.60
2023-05-11T15:24:46.903Z,2.10
2023-05-11T15:27:15.236Z,1.80
2023-05-11T15:29:43.863Z,2.53
2023-05-11T15:32:15.339Z,1.83
2023-05-11T15:34:57.785Z,1.80
2023-05-11T15:37:27.966Z,1.83
2023-05-11T15:39:57.579Z,1.90
2023-05-11T15:42:25.696Z,1.85
2023-05-11T15:44:54.251Z,1.80
2023-05-11T15:47:22.342Z,1.73
2023-05-11T15:49:50.406Z,1.85
2023-05-11T15:52:18.639Z,2.00
2023-05-11T15:54:46.747Z,1.75
2023-05-11T15:57:17.135Z,1.90
2023-05-11T15:59:45.139Z,2.22
2023-05-11T16:02:13.221Z,2.03
2023-05-11T16:04:41.266Z,1.95
2023-05-11T16:07:09.215Z,1.83
2023-05-11T16:09:37.379Z,1.90
2023-05-11T16:12:05.806Z,1.92
2023-05-11T16:14:35.280Z,1.88
2023-05-11T16:17:03.495Z,1.92
2023-05-11T16:19:32.442Z,1.85
2023-05-11T16:22:00.606Z,1.58
2023-05-11T16:24:31.556Z,1.90
2023-05-11T16:27:01.106Z,1.80
2023-05-11T16:29:29.220Z,1.70
2023-05-11T16:31:58.938Z,1.80
2023-05-11T16:34:27.595Z,2.00
2023-05-11T16:36:57.969Z,1.75
2023-05-11T16:39:27.147Z,1.58
2023-05-11T16:41:55.215Z,1.52
2023-05-11T16:44:23.391Z,2.08
2023-05-11T16:46:51.496Z,1.85
2023-05-11T16:49:21.317Z,1.88
2023-05-11T16:51:49.512Z,1.85
2023-05-11T16:54:17.773Z,1.80
2023-05-11T16:56:45.953Z,1.60
2023-05-11T16:59:14.086Z,1.80
2023-05-11T17:01:42.365Z,1.70
2023-05-11T17:04:10.526Z,1.90
2023-05-11T17:06:40.225Z,1.73
2023-05-11T17:09:08.309Z,1.98
2023-05-11T17:11:36.871Z,1.90
2023-05-11T17:14:04.831Z,1.83
2023-05-11T17:16:33.060Z,1.70
2023-05-11T17:19:01.073Z,1.95
2023-05-11T17:21:29.557Z,1.73
2023-05-11T17:23:59.078Z,1.90
2023-05-11T17:26:39.141Z,2.10
2023-05-11T17:29:12.378Z,1.90
2023-05-11T17:31:41.157Z,1.92
2023-05-11T17:34:09.757Z,1.83
2023-05-11T17:36:37.982Z,2.10
2023-05-11T17:39:08.150Z,1.85
2023-05-11T17:41:36.069Z,1.90
2023-05-11T17:44:04.225Z,1.77
2023-05-11T17:46:32.430Z,1.80
2023-05-11T17:49:01.175Z,1.88
2023-05-11T17:51:30.037Z,1.92
2023-05-11T17:53:58.013Z,1.90
2023-05-11T17:56:27.458Z,2.40
2023-05-11T17:58:56.288Z,1.95
2023-05-11T18:01:24.790Z,1.92
2023-05-11T18:03:53.299Z,1.75
2023-05-11T18:06:21.641Z,1.92
2023-05-11T18:08:49.843Z,2.00
2023-05-11T18:11:17.809Z,2.03
2023-05-11T18:13:47.663Z,1.90
2023-05-11T18:16:15.849Z,2.13
2023-05-11T18:18:44.910Z,1.75
2023-05-11T18:21:13.360Z,2.10
2023-05-11T18:23:41.466Z,1.80
2023-05-11T18:26:09.482Z,2.38
2023-05-11T18:28:37.551Z,2.40
2023-05-11T18:31:07.014Z,2.65
2023-05-11T18:33:35.449Z,2.45
2023-05-11T18:36:04.396Z,2.03
2023-05-11T18:38:32.517Z,2.10
2023-05-11T18:41:05.232Z,2.45
2023-05-11T18:43:34.288Z,2.50
2023-05-11T18:46:02.484Z,2.33
2023-05-11T18:48:32.015Z,2.47
2023-05-11T18:51:00.134Z,2.40
2023-05-11T18:53:28.305Z,2.17
2023-05-11T18:55:56.702Z,2.60
2023-05-11T18:58:25.012Z,2.10
2023-05-11T19:00:53.222Z,2.60
2023-05-11T19:03:22.054Z,2.40
2023-05-11T19:05:52.266Z,2.33
2023-05-11T19:08:20.314Z,2.38
2023-05-11T19:10:49.458Z,2.42
2023-05-11T19:13:17.538Z,2.45
2023-05-11T19:15:45.560Z,2.63
2023-05-11T19:18:13.701Z,2.60
2023-05-11T19:20:41.698Z,2.67
2023-05-11T19:23:11.407Z,2.50
2023-05-11T19:25:39.608Z,2.80
2023-05-11T19:28:07.720Z,2.60
2023-05-11T19:30:36.010Z,2.50
2023-05-11T19:33:04.444Z,3.15
2023-05-11T19:35:32.660Z,3.50
2023-05-11T19:38:00.644Z,3.17
2023-05-11T19:43:01.022Z,2.80
2023-05-11T19:45:31.586Z,2.83
2023-05-11T19:48:00.349Z,2.97
2023-05-11T19:50:28.626Z,3.20
2023-05-11T19:52:57.498Z,2.90
2023-05-11T19:55:25.625Z,2.72
2023-05-11T19:57:54.934Z,2.90
2023-05-11T20:00:25.206Z,3.17
2023-05-11T20:02:53.934Z,3.00
2023-05-11T20:05:22.172Z,3.10
2023-05-11T20:07:50.157Z,2.77
2023-05-11T20:10:18.442Z,2.93
2023-05-11T20:12:46.730Z,3.33
2023-05-11T20:15:16.046Z,2.80
2023-05-11T20:17:44.459Z,2.90
2023-05-11T20:20:13.337Z,3.00
2023-05-11T20:22:41.384Z,3.03
2023-05-11T20:25:17.089Z,2.70
2023-05-11T20:27:46.516Z,3.10
2023-05-11T20:30:16.790Z,3.47
2023-05-11T20:35:16.595Z,3.00
2023-05-11T20:37:44.894Z,3.30
2023-05-11T20:40:14.141Z,2.93
2023-05-11T20:42:42.229Z,2.87
2023-05-11T20:45:11.156Z,3.00
2023-05-11T20:47:40.601Z,2.90
2023-05-11T20:50:10.114Z,3.20
2023-05-11T20:52:38.701Z,2.70
2023-05-11T20:55:07.934Z,2.83
2023-05-11T20:57:36.038Z,3.07
2023-05-11T21:00:07.776Z,3.50
2023-05-11T21:02:36.219Z,2.90
2023-05-11T21:05:06.473Z,3.20
2023-05-11T21:07:34.736Z,3.33
2023-05-11T21:10:02.891Z,3.50
2023-05-11T21:12:31.201Z,3.20
2023-05-11T21:14:59.353Z,2.90
2023-05-11T21:17:28.030Z,3.30
2023-05-11T21:19:57.023Z,3.20
2023-05-11T21:22:26.429Z,2.93
2023-05-11T21:24:54.481Z,3.37
2023-05-11T21:27:22.555Z,3.43
2023-05-11T21:29:51.033Z,3.37
2023-05-11T21:32:19.188Z,3.20
2023-05-11T21:34:47.170Z,3.40
2023-05-11T21:37:16.002Z,3.40
2023-05-11T21:39:45.339Z,3.87
2023-05-11T21:42:13.430Z,3.23
2023-05-11T21:44:41.803Z,3.83
2023-05-11T21:47:09.813Z,3.57
2023-05-11T21:49:37.894Z,3.47
2023-05-11T21:52:06.677Z,3.30
2023-05-11T21:54:34.905Z,3.40
2023-05-11T21:57:04.458Z,3.73
2023-05-11T21:59:33.064Z,4.00
2023-05-11T22:02:01.663Z,3.57
2023-05-11T22:04:30.557Z,3.60
2023-05-11T22:07:01.540Z,3.50
2023-05-11T22:09:31.499Z,3.70
2023-05-11T22:11:59.798Z,3.50
2023-05-11T22:14:29.165Z,3.27
2023-05-11T22:16:57.506Z,3.77
2023-05-11T22:19:26.189Z,3.50
2023-05-11T22:21:54.452Z,3.70
2023-05-11T22:24:23.235Z,3.30
2023-05-11T22:26:51.522Z,3.63
2023-05-11T22:29:19.831Z,3.50
2023-05-11T22:31:50.234Z,3.90
2023-05-11T22:34:21.004Z,3.83
2023-05-11T22:36:49.047Z,3.50
2023-05-11T22:39:17.220Z,3.70
2023-05-11T22:41:45.386Z,3.67
2023-05-11T22:44:13.483Z,3.90
2023-05-11T22:46:41.434Z,3.47
2023-05-11T22:49:10.826Z,3.60
2023-05-11T22:51:39.080Z,3.97
2023-05-11T22:54:07.309Z,3.70
2023-05-11T22:56:35.487Z,3.77
2023-05-11T22:59:04.658Z,3.93
2023-05-11T23:01:33.566Z,3.93
2023-05-11T23:04:02.211Z,4.33
2023-05-11T23:06:32.696Z,4.43
2023-05-11T23:09:00.740Z,4.67
2023-05-11T23:11:28.867Z,4.70
2023-05-11T23:13:56.879Z,4.00
2023-05-11T23:16:25.064Z,4.53
2023-05-11T23:18:53.244Z,4.20
2023-05-11T23:21:21.566Z,3.63
2023-05-11T23:23:51.002Z,3.93
2023-05-11T23:26:18.957Z,3.90
2023-05-11T23:28:46.912Z,3.93
2023-05-11T23:31:15.209Z,4.13
2023-05-11T23:33:43.452Z,4.17
2023-05-11T23:36:11.417Z,3.80
2023-05-11T23:38:39.413Z,3.50
2023-05-11T23:41:08.926Z,3.33
2023-05-11T23:43:37.295Z,3.80
2023-05-11T23:46:05.378Z,3.90
2023-05-11T23:48:33.582Z,3.40
2023-05-11T23:51:01.755Z,3.47
2023-05-11T23:53:29.812Z,3.50
2023-05-11T23:55:57.864Z,3.73
2023-05-11T23:58:27.762Z,3.33
